sensor_id;sensor_type;location;lat;lon;timestamp;P1;durP1;ratioP1;P2;durP2;ratioP2
9188;SDS011;34313;50.780;6.084;2022-08-21T00:02:03;10.10;;;4.00;;
9188;SDS011;34313;50.780;6.084;2022-08-21T00:04:29;11.27;;;3.87;;
9188;SDS011;34313;50.780;6.084;2022-08-21T00:06:55;7.20;;;3.70;;
9188;SDS011;34313;50.780;6.084;2022-08-21T00:09:21;6.50;;;3.57;;
9188;SDS011;34313;50.780;6.084;2022-08-21T00:11:46;5.67;;;3.20;;
9188;SDS011;34313;50.780;6.084;2022-08-21T00:14:13;6.70;;;3.90;;
9188;SDS011;34313;50.780;6.084;2022-08-21T00:16:39;6.73;;;3.97;;
9188;SDS011;34313;50.780;6.084;2022-08-21T00:19:05;6.23;;;3.80;;
9188;SDS011;34313;50.780;6.084;2022-08-21T00:21:31;4.73;;;3.67;;
9188;SDS011;34313;50.780;6.084;2022-08-21T00:23:57;12.30;;;3.70;;
9188;SDS011;34313;50.780;6.084;2022-08-21T00:26:23;7.87;;;3.50;;
9188;SDS011;34313;50.780;6.084;2022-08-21T00:28:48;5.43;;;3.87;;
9188;SDS011;34313;50.780;6.084;2022-08-21T00:31:14;6.77;;;3.90;;
9188;SDS011;34313;50.780;6.084;2022-08-21T00:33:40;6.40;;;3.57;;
9188;SDS011;34313;50.780;6.084;2022-08-21T00:36:06;11.67;;;4.07;;
9188;SDS011;34313;50.780;6.084;2022-08-21T00:38:31;5.83;;;3.40;;
9188;SDS011;34313;50.780;6.084;2022-08-21T00:40:58;7.13;;;3.70;;
9188;SDS011;34313;50.780;6.084;2022-08-21T00:43:29;11.10;;;3.50;;
9188;SDS011;34313;50.780;6.084;2022-08-21T00:45:56;6.00;;;3.60;;
9188;SDS011;34313;50.780;6.084;2022-08-21T00:48:23;6.77;;;3.53;;
9188;SDS011;34313;50.780;6.084;2022-08-21T00:50:56;7.20;;;4.10;;
9188;SDS011;34313;50.780;6.084;2022-08-21T00:53:27;10.07;;;5.10;;
9188;SDS011;34313;50.780;6.084;2022-08-21T00:55:54;6.60;;;3.80;;
9188;SDS011;34313;50.780;6.084;2022-08-21T00:58:20;6.30;;;3.50;;
9188;SDS011;34313;50.780;6.084;2022-08-21T01:00:48;9.13;;;3.93;;
9188;SDS011;34313;50.780;6.084;2022-08-21T01:03:16;10.03;;;4.20;;
9188;SDS011;34313;50.780;6.084;2022-08-21T01:05:44;5.47;;;3.50;;
9188;SDS011;34313;50.780;6.084;2022-08-21T01:08:11;11.30;;;4.00;;
9188;SDS011;34313;50.780;6.084;2022-08-21T01:10:37;6.63;;;4.07;;
9188;SDS011;34313;50.780;6.084;2022-08-21T01:13:05;7.00;;;4.03;;
9188;SDS011;34313;50.780;6.084;2022-08-21T01:15:34;5.77;;;3.90;;
9188;SDS011;34313;50.780;6.084;2022-08-21T01:18:06;5.67;;;3.90;;
9188;SDS011;34313;50.780;6.084;2022-08-21T01:20:35;6.03;;;3.80;;
9188;SDS011;34313;50.780;6.084;2022-08-21T01:23:02;7.30;;;3.90;;
9188;SDS011;34313;50.780;6.084;2022-08-21T01:25:30;7.40;;;4.20;;
9188;SDS011;34313;50.780;6.084;2022-08-21T01:27:56;5.83;;;4.10;;
9188;SDS011;34313;50.780;6.084;2022-08-21T01:30:26;7.73;;;4.20;;
9188;SDS011;34313;50.780;6.084;2022-08-21T01:32:52;10.17;;;4.50;;
9188;SDS011;34313;50.780;6.084;2022-08-21T01:35:19;5.90;;;4.23;;
9188;SDS011;34313;50.780;6.084;2022-08-21T01:37:46;6.83;;;4.17;;
9188;SDS011;34313;50.780;6.084;2022-08-21T01:40:12;6.43;;;3.80;;
9188;SDS011;34313;50.780;6.084;2022-08-21T01:42:41;12.10;;;4.37;;
9188;SDS011;34313;50.780;6.084;2022-08-21T01:45:08;8.60;;;3.87;;
9188;SDS011;34313;50.780;6.084;2022-08-21T01:47:34;9.77;;;4.60;;
9188;SDS011;34313;50.780;6.084;2022-08-21T01:50:00;8.83;;;5.30;;
9188;SDS011;34313;50.780;6.084;2022-08-21T01:52:26;9.10;;;4.40;;
9188;SDS011;34313;50.780;6.084;2022-08-21T01:54:53;8.40;;;4.87;;
9188;SDS011;34313;50.780;6.084;2022-08-21T01:57:18;10.83;;;4.00;;
9188;SDS011;34313;50.780;6.084;2022-08-21T01:59:44;7.63;;;4.00;;
9188;SDS011;34313;50.780;6.084;2022-08-21T02:02:09;5.90;;;4.00;;
9188;SDS011;34313;50.780;6.084;2022-08-21T02:04:35;7.77;;;3.90;;
9188;SDS011;34313;50.780;6.084;2022-08-21T02:07:01;8.00;;;4.17;;
9188;SDS011;34313;50.780;6.084;2022-08-21T02:09:28;7.60;;;4.53;;
9188;SDS011;34313;50.780;6.084;2022-08-21T02:11:54;6.70;;;4.03;;
9188;SDS011;34313;50.780;6.084;2022-08-21T02:14:19;12.20;;;4.30;;
9188;SDS011;34313;50.780;6.084;2022-08-21T02:16:45;12.17;;;4.50;;
9188;SDS011;34313;50.780;6.084;2022-08-21T02:19:12;11.23;;;3.73;;
9188;SDS011;34313;50.780;6.084;2022-08-21T02:21:39;6.40;;;4.00;;
9188;SDS011;34313;50.780;6.084;2022-08-21T02:24:05;8.10;;;3.63;;
9188;SDS011;34313;50.780;6.084;2022-08-21T02:26:31;9.60;;;4.70;;
9188;SDS011;34313;50.780;6.084;2022-08-21T02:28:56;7.03;;;3.60;;
9188;SDS011;34313;50.780;6.084;2022-08-21T02:31:22;8.40;;;4.40;;
9188;SDS011;34313;50.780;6.084;2022-08-21T02:33:47;10.90;;;4.00;;
9188;SDS011;34313;50.780;6.084;2022-08-21T02:36:13;7.20;;;3.30;;
9188;SDS011;34313;50.780;6.084;2022-08-21T02:38:40;7.10;;;3.63;;
9188;SDS011;34313;50.780;6.084;2022-08-21T02:41:07;9.47;;;3.63;;
9188;SDS011;34313;50.780;6.084;2022-08-21T02:43:34;6.57;;;3.63;;
9188;SDS011;34313;50.780;6.084;2022-08-21T02:46:00;6.90;;;3.07;;
9188;SDS011;34313;50.780;6.084;2022-08-21T02:48:28;6.77;;;3.00;;
9188;SDS011;34313;50.780;6.084;2022-08-21T02:51:08;8.60;;;3.17;;
9188;SDS011;34313;50.780;6.084;2022-08-21T02:53:36;6.43;;;2.87;;
9188;SDS011;34313;50.780;6.084;2022-08-21T02:56:03;10.00;;;3.10;;
9188;SDS011;34313;50.780;6.084;2022-08-21T02:58:32;6.20;;;2.67;;
9188;SDS011;34313;50.780;6.084;2022-08-21T03:00:59;7.40;;;2.90;;
9188;SDS011;34313;50.780;6.084;2022-08-21T03:03:26;8.10;;;2.60;;
9188;SDS011;34313;50.780;6.084;2022-08-21T03:05:53;5.90;;;2.90;;
9188;SDS011;34313;50.780;6.084;2022-08-21T03:08:19;5.77;;;3.00;;
9188;SDS011;34313;50.780;6.084;2022-08-21T03:10:47;10.20;;;3.07;;
9188;SDS011;34313;50.780;6.084;2022-08-21T03:13:15;7.10;;;3.00;;
9188;SDS011;34313;50.780;6.084;2022-08-21T03:15:42;4.10;;;2.50;;
9188;SDS011;34313;50.780;6.084;2022-08-21T03:18:08;6.47;;;2.97;;
9188;SDS011;34313;50.780;6.084;2022-08-21T03:20:35;8.60;;;3.13;;
9188;SDS011;34313;50.780;6.084;2022-08-21T03:23:02;6.47;;;3.77;;
9188;SDS011;34313;50.780;6.084;2022-08-21T03:25:30;10.70;;;3.33;;
9188;SDS011;34313;50.780;6.084;2022-08-21T03:27:59;5.87;;;3.17;;
9188;SDS011;34313;50.780;6.084;2022-08-21T03:30:25;4.57;;;2.80;;
9188;SDS011;34313;50.780;6.084;2022-08-21T03:32:51;8.10;;;3.00;;
9188;SDS011;34313;50.780;6.084;2022-08-21T03:35:16;8.63;;;3.17;;
9188;SDS011;34313;50.780;6.084;2022-08-21T03:37:42;4.23;;;2.70;;
9188;SDS011;34313;50.780;6.084;2022-08-21T03:40:09;8.13;;;3.20;;
9188;SDS011;34313;50.780;6.084;2022-08-21T03:42:35;7.33;;;3.00;;
9188;SDS011;34313;50.780;6.084;2022-08-21T03:45:01;5.33;;;2.90;;
9188;SDS011;34313;50.780;6.084;2022-08-21T03:47:26;6.10;;;3.00;;
9188;SDS011;34313;50.780;6.084;2022-08-21T03:49:52;5.17;;;2.73;;
9188;SDS011;34313;50.780;6.084;2022-08-21T03:52:17;6.70;;;3.10;;
9188;SDS011;34313;50.780;6.084;2022-08-21T03:54:43;8.07;;;3.60;;
9188;SDS011;34313;50.780;6.084;2022-08-21T03:57:10;10.67;;;4.17;;
9188;SDS011;34313;50.780;6.084;2022-08-21T03:59:35;11.10;;;3.70;;
9188;SDS011;34313;50.780;6.084;2022-08-21T04:02:02;7.20;;;3.67;;
9188;SDS011;34313;50.780;6.084;2022-08-21T04:04:29;11.93;;;3.90;;
9188;SDS011;34313;50.780;6.084;2022-08-21T04:06:55;7.10;;;3.40;;
9188;SDS011;34313;50.780;6.084;2022-08-21T04:09:22;8.20;;;4.13;;
9188;SDS011;34313;50.780;6.084;2022-08-21T04:11:48;12.80;;;3.60;;
9188;SDS011;34313;50.780;6.084;2022-08-21T04:14:14;11.83;;;4.20;;
9188;SDS011;34313;50.780;6.084;2022-08-21T04:16:40;11.87;;;3.87;;
9188;SDS011;34313;50.780;6.084;2022-08-21T04:19:07;9.50;;;4.47;;
9188;SDS011;34313;50.780;6.084;2022-08-21T04:21:33;4.83;;;3.67;;
9188;SDS011;34313;50.780;6.084;2022-08-21T04:24:00;8.93;;;3.97;;
9188;SDS011;34313;50.780;6.084;2022-08-21T04:26:25;11.10;;;4.10;;
9188;SDS011;34313;50.780;6.084;2022-08-21T04:28:51;7.13;;;3.73;;
9188;SDS011;34313;50.780;6.084;2022-08-21T04:31:17;9.90;;;3.80;;
9188;SDS011;34313;50.780;6.084;2022-08-21T04:33:43;7.50;;;3.90;;
9188;SDS011;34313;50.780;6.084;2022-08-21T04:36:09;5.40;;;3.33;;
9188;SDS011;34313;50.780;6.084;2022-08-21T04:38:36;7.67;;;4.03;;
9188;SDS011;34313;50.780;6.084;2022-08-21T04:41:02;6.37;;;3.60;;
9188;SDS011;34313;50.780;6.084;2022-08-21T04:43:27;12.73;;;3.77;;
9188;SDS011;34313;50.780;6.084;2022-08-21T04:45:53;8.83;;;3.40;;
9188;SDS011;34313;50.780;6.084;2022-08-21T04:48:20;6.00;;;3.30;;
9188;SDS011;34313;50.780;6.084;2022-08-21T04:53:52;4.07;;;3.20;;
9188;SDS011;34313;50.780;6.084;2022-08-21T04:56:29;7.20;;;3.27;;
9188;SDS011;34313;50.780;6.084;2022-08-21T04:58:58;6.40;;;3.40;;
9188;SDS011;34313;50.780;6.084;2022-08-21T05:01:29;5.83;;;3.20;;
9188;SDS011;34313;50.780;6.084;2022-08-21T05:03:57;6.10;;;2.90;;
9188;SDS011;34313;50.780;6.084;2022-08-21T05:06:24;7.60;;;3.03;;
9188;SDS011;34313;50.780;6.084;2022-08-21T05:08:51;7.00;;;3.10;;
9188;SDS011;34313;50.780;6.084;2022-08-21T05:11:20;4.87;;;2.70;;
9188;SDS011;34313;50.780;6.084;2022-08-21T05:13:47;8.80;;;3.20;;
9188;SDS011;34313;50.780;6.084;2022-08-21T05:16:13;6.70;;;2.40;;
9188;SDS011;34313;50.780;6.084;2022-08-21T05:18:39;8.93;;;2.87;;
9188;SDS011;34313;50.780;6.084;2022-08-21T05:21:04;7.90;;;2.90;;
9188;SDS011;34313;50.780;6.084;2022-08-21T05:23:30;5.70;;;2.70;;
9188;SDS011;34313;50.780;6.084;2022-08-21T05:25:56;5.33;;;2.27;;
9188;SDS011;34313;50.780;6.084;2022-08-21T05:28:22;9.40;;;2.40;;
9188;SDS011;34313;50.780;6.084;2022-08-21T05:30:48;4.37;;;2.03;;
9188;SDS011;34313;50.780;6.084;2022-08-21T05:33:14;5.90;;;2.67;;
9188;SDS011;34313;50.780;6.084;2022-08-21T05:35:39;4.90;;;2.47;;
9188;SDS011;34313;50.780;6.084;2022-08-21T05:38:06;5.43;;;2.40;;
9188;SDS011;34313;50.780;6.084;2022-08-21T05:40:31;6.30;;;2.10;;
9188;SDS011;34313;50.780;6.084;2022-08-21T05:42:58;5.27;;;2.20;;
9188;SDS011;34313;50.780;6.084;2022-08-21T05:45:25;2.97;;;1.75;;
9188;SDS011;34313;50.780;6.084;2022-08-21T05:47:53;3.85;;;2.05;;
9188;SDS011;34313;50.780;6.084;2022-08-21T05:50:19;6.03;;;2.78;;
9188;SDS011;34313;50.780;6.084;2022-08-21T05:52:44;5.93;;;2.28;;
9188;SDS011;34313;50.780;6.084;2022-08-21T05:55:10;6.40;;;2.58;;
9188;SDS011;34313;50.780;6.084;2022-08-21T05:57:35;5.78;;;1.95;;
9188;SDS011;34313;50.780;6.084;2022-08-21T06:00:00;4.30;;;2.15;;
9188;SDS011;34313;50.780;6.084;2022-08-21T06:02:26;5.63;;;1.93;;
9188;SDS011;34313;50.780;6.084;2022-08-21T06:04:51;6.03;;;1.90;;
9188;SDS011;34313;50.780;6.084;2022-08-21T06:07:16;4.50;;;1.73;;
9188;SDS011;34313;50.780;6.084;2022-08-21T06:09:42;5.93;;;1.83;;
9188;SDS011;34313;50.780;6.084;2022-08-21T06:12:08;5.10;;;2.30;;
9188;SDS011;34313;50.780;6.084;2022-08-21T06:14:36;7.17;;;2.37;;
9188;SDS011;34313;50.780;6.084;2022-08-21T06:17:04;5.83;;;2.00;;
9188;SDS011;34313;50.780;6.084;2022-08-21T06:19:30;6.20;;;1.90;;
9188;SDS011;34313;50.780;6.084;2022-08-21T06:21:55;5.33;;;2.00;;
9188;SDS011;34313;50.780;6.084;2022-08-21T06:24:21;4.27;;;2.07;;
9188;SDS011;34313;50.780;6.084;2022-08-21T06:26:46;4.10;;;1.83;;
9188;SDS011;34313;50.780;6.084;2022-08-21T06:29:12;6.17;;;2.13;;
9188;SDS011;34313;50.780;6.084;2022-08-21T06:31:41;6.97;;;1.93;;
9188;SDS011;34313;50.780;6.084;2022-08-21T06:34:06;7.50;;;2.20;;
9188;SDS011;34313;50.780;6.084;2022-08-21T06:36:32;8.30;;;2.07;;
9188;SDS011;34313;50.780;6.084;2022-08-21T06:38:57;6.77;;;2.07;;
9188;SDS011;34313;50.780;6.084;2022-08-21T06:41:22;4.53;;;1.73;;
9188;SDS011;34313;50.780;6.084;2022-08-21T06:43:48;3.97;;;1.63;;
9188;SDS011;34313;50.780;6.084;2022-08-21T06:46:13;8.70;;;1.90;;
9188;SDS011;34313;50.780;6.084;2022-08-21T06:48:39;4.63;;;1.87;;
9188;SDS011;34313;50.780;6.084;2022-08-21T06:51:04;5.77;;;1.97;;
9188;SDS011;34313;50.780;6.084;2022-08-21T06:53:30;6.20;;;1.63;;
9188;SDS011;34313;50.780;6.084;2022-08-21T06:55:55;4.90;;;1.67;;
9188;SDS011;34313;50.780;6.084;2022-08-21T06:58:20;7.50;;;1.90;;
9188;SDS011;34313;50.780;6.084;2022-08-21T07:00:46;10.03;;;1.80;;
9188;SDS011;34313;50.780;6.084;2022-08-21T07:03:22;4.73;;;1.97;;
9188;SDS011;34313;50.780;6.084;2022-08-21T07:05:52;3.33;;;1.50;;
9188;SDS011;34313;50.780;6.084;2022-08-21T07:08:18;2.80;;;1.20;;
9188;SDS011;34313;50.780;6.084;2022-08-21T07:10:44;3.67;;;1.33;;
9188;SDS011;34313;50.780;6.084;2022-08-21T07:13:10;4.80;;;1.30;;
9188;SDS011;34313;50.780;6.084;2022-08-21T07:15:36;5.03;;;1.60;;
9188;SDS011;34313;50.780;6.084;2022-08-21T07:18:01;9.50;;;1.70;;
9188;SDS011;34313;50.780;6.084;2022-08-21T07:20:27;2.50;;;1.33;;
9188;SDS011;34313;50.780;6.084;2022-08-21T07:22:53;3.20;;;1.20;;
9188;SDS011;34313;50.780;6.084;2022-08-21T07:25:20;6.40;;;1.83;;
9188;SDS011;34313;50.780;6.084;2022-08-21T07:27:45;4.00;;;1.50;;
9188;SDS011;34313;50.780;6.084;2022-08-21T07:30:11;5.60;;;1.63;;
9188;SDS011;34313;50.780;6.084;2022-08-21T07:32:36;5.57;;;1.30;;
9188;SDS011;34313;50.780;6.084;2022-08-21T07:35:02;2.40;;;1.00;;
9188;SDS011;34313;50.780;6.084;2022-08-21T07:37:28;3.07;;;1.33;;
9188;SDS011;34313;50.780;6.084;2022-08-21T07:39:53;3.17;;;1.50;;
9188;SDS011;34313;50.780;6.084;2022-08-21T07:42:19;4.30;;;1.37;;
9188;SDS011;34313;50.780;6.084;2022-08-21T07:44:44;5.30;;;1.73;;
9188;SDS011;34313;50.780;6.084;2022-08-21T07:47:10;2.50;;;1.10;;
9188;SDS011;34313;50.780;6.084;2022-08-21T07:49:35;5.07;;;1.40;;
9188;SDS011;34313;50.780;6.084;2022-08-21T07:52:00;4.77;;;1.40;;
9188;SDS011;34313;50.780;6.084;2022-08-21T07:54:26;6.97;;;1.80;;
9188;SDS011;34313;50.780;6.084;2022-08-21T07:56:52;5.20;;;1.53;;
9188;SDS011;34313;50.780;6.084;2022-08-21T07:59:17;3.87;;;1.70;;
9188;SDS011;34313;50.780;6.084;2022-08-21T08:01:43;4.93;;;1.50;;
9188;SDS011;34313;50.780;6.084;2022-08-21T08:04:08;2.42;;;1.30;;
9188;SDS011;34313;50.780;6.084;2022-08-21T08:06:34;5.85;;;2.22;;
9188;SDS011;34313;50.780;6.084;2022-08-21T08:08:59;6.90;;;1.88;;
9188;SDS011;34313;50.780;6.084;2022-08-21T08:11:27;3.28;;;1.60;;
9188;SDS011;34313;50.780;6.084;2022-08-21T08:13:52;3.78;;;1.50;;
9188;SDS011;34313;50.780;6.084;2022-08-21T08:16:18;4.18;;;1.67;;
9188;SDS011;34313;50.780;6.084;2022-08-21T08:18:44;4.85;;;1.60;;
9188;SDS011;34313;50.780;6.084;2022-08-21T08:21:10;4.38;;;1.50;;
9188;SDS011;34313;50.780;6.084;2022-08-21T08:23:36;5.85;;;1.80;;
9188;SDS011;34313;50.780;6.084;2022-08-21T08:26:02;3.22;;;1.48;;
9188;SDS011;34313;50.780;6.084;2022-08-21T08:28:28;5.78;;;1.50;;
9188;SDS011;34313;50.780;6.084;2022-08-21T08:30:56;4.00;;;1.20;;
9188;SDS011;34313;50.780;6.084;2022-08-21T08:33:22;2.33;;;1.40;;
9188;SDS011;34313;50.780;6.084;2022-08-21T08:35:48;4.15;;;1.42;;
9188;SDS011;34313;50.780;6.084;2022-08-21T08:38:16;4.78;;;1.60;;
9188;SDS011;34313;50.780;6.084;2022-08-21T08:43:28;5.07;;;1.63;;
9188;SDS011;34313;50.780;6.084;2022-08-21T08:45:57;4.55;;;1.60;;
9188;SDS011;34313;50.780;6.084;2022-08-21T08:51:22;2.85;;;1.38;;
9188;SDS011;34313;50.780;6.084;2022-08-21T08:53:54;4.32;;;1.85;;
9188;SDS011;34313;50.780;6.084;2022-08-21T08:56:28;3.08;;;1.50;;
9188;SDS011;34313;50.780;6.084;2022-08-21T08:58:57;4.70;;;1.83;;
9188;SDS011;34313;50.780;6.084;2022-08-21T09:01:26;6.63;;;1.52;;
9188;SDS011;34313;50.780;6.084;2022-08-21T09:03:52;5.18;;;1.50;;
9188;SDS011;34313;50.780;6.084;2022-08-21T09:06:37;7.32;;;1.70;;
9188;SDS011;34313;50.780;6.084;2022-08-21T09:15:24;6.28;;;1.60;;
9188;SDS011;34313;50.780;6.084;2022-08-21T09:21:15;8.48;;;1.55;;
9188;SDS011;34313;50.780;6.084;2022-08-21T09:29:38;4.50;;;1.55;;
9188;SDS011;34313;50.780;6.084;2022-08-21T09:32:11;5.63;;;1.65;;
9188;SDS011;34313;50.780;6.084;2022-08-21T09:34:56;4.13;;;1.52;;
9188;SDS011;34313;50.780;6.084;2022-08-21T09:37:29;3.70;;;1.52;;
9188;SDS011;34313;50.780;6.084;2022-08-21T09:39:55;9.13;;;2.47;;
9188;SDS011;34313;50.780;6.084;2022-08-21T09:42:28;8.30;;;2.17;;
9188;SDS011;34313;50.780;6.084;2022-08-21T09:47:36;3.83;;;1.73;;
9188;SDS011;34313;50.780;6.084;2022-08-21T09:50:12;6.30;;;1.80;;
9188;SDS011;34313;50.780;6.084;2022-08-21T09:52:42;6.53;;;1.90;;
9188;SDS011;34313;50.780;6.084;2022-08-21T09:55:14;6.53;;;1.80;;
9188;SDS011;34313;50.780;6.084;2022-08-21T09:58:06;3.60;;;1.53;;
9188;SDS011;34313;50.780;6.084;2022-08-21T10:00:32;4.03;;;1.50;;
9188;SDS011;34313;50.780;6.084;2022-08-21T10:03:10;4.90;;;1.73;;
9188;SDS011;34313;50.780;6.084;2022-08-21T10:05:49;5.87;;;1.63;;
9188;SDS011;34313;50.780;6.084;2022-08-21T10:08:26;4.93;;;1.87;;
9188;SDS011;34313;50.780;6.084;2022-08-21T10:10:57;5.60;;;1.53;;
9188;SDS011;34313;50.780;6.084;2022-08-21T10:17:32;6.33;;;2.23;;
9188;SDS011;34313;50.780;6.084;2022-08-21T10:19:50;6.97;;;2.17;;
9188;SDS011;34313;50.780;6.084;2022-08-21T10:25:00;5.90;;;1.80;;
9188;SDS011;34313;50.780;6.084;2022-08-21T10:27:53;6.77;;;1.67;;
9188;SDS011;34313;50.780;6.084;2022-08-21T10:35:49;3.30;;;1.70;;
9188;SDS011;34313;50.780;6.084;2022-08-21T10:38:34;7.10;;;2.00;;
9188;SDS011;34313;50.780;6.084;2022-08-21T10:44:08;5.10;;;1.77;;
9188;SDS011;34313;50.780;6.084;2022-08-21T10:49:40;5.33;;;2.20;;
9188;SDS011;34313;50.780;6.084;2022-08-21T10:57:37;6.90;;;2.07;;
9188;SDS011;34313;50.780;6.084;2022-08-21T11:00:11;7.67;;;1.80;;
9188;SDS011;34313;50.780;6.084;2022-08-21T11:02:58;6.43;;;1.93;;
9188;SDS011;34313;50.780;6.084;2022-08-21T11:05:31;6.30;;;1.90;;
9188;SDS011;34313;50.780;6.084;2022-08-21T11:08:09;4.43;;;1.60;;
9188;SDS011;34313;50.780;6.084;2022-08-21T11:10:42;8.07;;;2.47;;
9188;SDS011;34313;50.780;6.084;2022-08-21T11:13:17;4.97;;;2.00;;
9188;SDS011;34313;50.780;6.084;2022-08-21T11:18:53;3.63;;;1.90;;
9188;SDS011;34313;50.780;6.084;2022-08-21T11:24:22;5.10;;;1.80;;
9188;SDS011;34313;50.780;6.084;2022-08-21T11:29:44;5.10;;;1.90;;
9188;SDS011;34313;50.780;6.084;2022-08-21T11:33:09;4.47;;;1.60;;
9188;SDS011;34313;50.780;6.084;2022-08-21T11:35:27;7.57;;;1.77;;
9188;SDS011;34313;50.780;6.084;2022-08-21T11:50:46;5.77;;;1.70;;
9188;SDS011;34313;50.780;6.084;2022-08-21T11:53:16;3.50;;;1.70;;
9188;SDS011;34313;50.780;6.084;2022-08-21T11:55:51;5.93;;;2.53;;
9188;SDS011;34313;50.780;6.084;2022-08-21T11:58:43;4.67;;;1.80;;
9188;SDS011;34313;50.780;6.084;2022-08-21T12:01:17;6.90;;;1.70;;
9188;SDS011;34313;50.780;6.084;2022-08-21T12:03:57;4.50;;;2.00;;
9188;SDS011;34313;50.780;6.084;2022-08-21T12:06:31;7.27;;;1.80;;
9188;SDS011;34313;50.780;6.084;2022-08-21T12:09:06;3.83;;;1.60;;
9188;SDS011;34313;50.780;6.084;2022-08-21T12:11:45;8.93;;;1.80;;
9188;SDS011;34313;50.780;6.084;2022-08-21T12:14:41;4.53;;;1.63;;
9188;SDS011;34313;50.780;6.084;2022-08-21T12:17:16;4.00;;;1.60;;
9188;SDS011;34313;50.780;6.084;2022-08-21T12:19:44;3.30;;;2.03;;
9188;SDS011;34313;50.780;6.084;2022-08-21T12:22:11;7.70;;;1.90;;
9188;SDS011;34313;50.780;6.084;2022-08-21T12:24:39;11.63;;;3.57;;
9188;SDS011;34313;50.780;6.084;2022-08-21T12:29:54;6.23;;;3.30;;
9188;SDS011;34313;50.780;6.084;2022-08-21T12:32:30;3.57;;;1.77;;
9188;SDS011;34313;50.780;6.084;2022-08-21T12:35:26;5.07;;;2.60;;
9188;SDS011;34313;50.780;6.084;2022-08-21T12:40:52;6.93;;;1.77;;
9188;SDS011;34313;50.780;6.084;2022-08-21T12:43:25;3.10;;;1.90;;
9188;SDS011;34313;50.780;6.084;2022-08-21T12:45:56;4.67;;;1.60;;
9188;SDS011;34313;50.780;6.084;2022-08-21T12:51:22;2.57;;;1.60;;
9188;SDS011;34313;50.780;6.084;2022-08-21T12:53:57;6.60;;;1.90;;
9188;SDS011;34313;50.780;6.084;2022-08-21T12:56:28;2.83;;;1.43;;
9188;SDS011;34313;50.780;6.084;2022-08-21T12:59:03;5.03;;;1.87;;
9188;SDS011;34313;50.780;6.084;2022-08-21T13:04:08;7.17;;;2.63;;
9188;SDS011;34313;50.780;6.084;2022-08-21T13:06:38;4.47;;;3.23;;
9188;SDS011;34313;50.780;6.084;2022-08-21T13:09:07;7.67;;;2.13;;
9188;SDS011;34313;50.780;6.084;2022-08-21T13:11:38;3.20;;;1.93;;
9188;SDS011;34313;50.780;6.084;2022-08-21T13:14:06;5.13;;;1.60;;
9188;SDS011;34313;50.780;6.084;2022-08-21T13:16:41;4.17;;;1.60;;
9188;SDS011;34313;50.780;6.084;2022-08-21T13:19:06;4.50;;;2.17;;
9188;SDS011;34313;50.780;6.084;2022-08-21T13:21:40;4.93;;;2.40;;
9188;SDS011;34313;50.780;6.084;2022-08-21T13:24:19;7.90;;;3.13;;
9188;SDS011;34313;50.780;6.084;2022-08-21T13:26:47;5.90;;;1.50;;
9188;SDS011;34313;50.780;6.084;2022-08-21T13:29:14;5.40;;;2.50;;
9188;SDS011;34313;50.780;6.084;2022-08-21T13:31:46;10.13;;;2.40;;
9188;SDS011;34313;50.780;6.084;2022-08-21T13:34:14;5.97;;;1.67;;
9188;SDS011;34313;50.780;6.084;2022-08-21T13:36:41;6.53;;;1.93;;
9188;SDS011;34313;50.780;6.084;2022-08-21T13:39:09;6.90;;;1.80;;
9188;SDS011;34313;50.780;6.084;2022-08-21T13:41:38;4.10;;;1.50;;
9188;SDS011;34313;50.780;6.084;2022-08-21T13:44:17;7.60;;;1.80;;
9188;SDS011;34313;50.780;6.084;2022-08-21T13:46:45;2.80;;;1.23;;
9188;SDS011;34313;50.780;6.084;2022-08-21T13:49:13;4.47;;;1.63;;
9188;SDS011;34313;50.780;6.084;2022-08-21T13:51:41;8.33;;;1.73;;
9188;SDS011;34313;50.780;6.084;2022-08-21T13:54:20;5.67;;;1.70;;
9188;SDS011;34313;50.780;6.084;2022-08-21T13:56:51;5.97;;;1.63;;
9188;SDS011;34313;50.780;6.084;2022-08-21T13:59:31;7.23;;;2.00;;
9188;SDS011;34313;50.780;6.084;2022-08-21T14:02:12;3.30;;;1.50;;
9188;SDS011;34313;50.780;6.084;2022-08-21T14:05:00;6.00;;;2.40;;
9188;SDS011;34313;50.780;6.084;2022-08-21T14:07:28;4.00;;;1.83;;
9188;SDS011;34313;50.780;6.084;2022-08-21T14:09:59;4.93;;;1.73;;
9188;SDS011;34313;50.780;6.084;2022-08-21T14:12:32;6.67;;;2.07;;
9188;SDS011;34313;50.780;6.084;2022-08-21T14:15:23;2.90;;;1.67;;
9188;SDS011;34313;50.780;6.084;2022-08-21T14:17:50;5.13;;;1.80;;
9188;SDS011;34313;50.780;6.084;2022-08-21T14:23:11;7.27;;;2.30;;
9188;SDS011;34313;50.780;6.084;2022-08-21T14:25:44;7.30;;;2.53;;
9188;SDS011;34313;50.780;6.084;2022-08-21T14:28:14;6.73;;;2.17;;
9188;SDS011;34313;50.780;6.084;2022-08-21T14:30:56;4.80;;;1.40;;
9188;SDS011;34313;50.780;6.084;2022-08-21T14:35:51;6.40;;;2.70;;
9188;SDS011;34313;50.780;6.084;2022-08-21T14:38:17;7.07;;;3.37;;
9188;SDS011;34313;50.780;6.084;2022-08-21T14:40:46;4.60;;;2.20;;
9188;SDS011;34313;50.780;6.084;2022-08-21T14:43:14;4.97;;;2.17;;
9188;SDS011;34313;50.780;6.084;2022-08-21T14:45:40;4.90;;;1.90;;
9188;SDS011;34313;50.780;6.084;2022-08-21T14:48:05;6.57;;;1.70;;
9188;SDS011;34313;50.780;6.084;2022-08-21T14:50:32;6.10;;;2.10;;
9188;SDS011;34313;50.780;6.084;2022-08-21T14:52:58;3.70;;;1.60;;
9188;SDS011;34313;50.780;6.084;2022-08-21T14:55:23;7.73;;;2.23;;
9188;SDS011;34313;50.780;6.084;2022-08-21T14:57:50;4.77;;;2.07;;
9188;SDS011;34313;50.780;6.084;2022-08-21T15:00:17;5.70;;;2.07;;
9188;SDS011;34313;50.780;6.084;2022-08-21T15:02:45;6.17;;;1.70;;
9188;SDS011;34313;50.780;6.084;2022-08-21T15:05:11;5.03;;;2.40;;
9188;SDS011;34313;50.780;6.084;2022-08-21T15:07:37;7.10;;;2.33;;
9188;SDS011;34313;50.780;6.084;2022-08-21T15:10:03;5.67;;;1.77;;
9188;SDS011;34313;50.780;6.084;2022-08-21T15:12:29;5.80;;;1.80;;
9188;SDS011;34313;50.780;6.084;2022-08-21T15:14:55;8.67;;;2.30;;
9188;SDS011;34313;50.780;6.084;2022-08-21T15:17:21;6.93;;;1.83;;
9188;SDS011;34313;50.780;6.084;2022-08-21T15:19:48;3.73;;;1.63;;
9188;SDS011;34313;50.780;6.084;2022-08-21T15:22:14;6.13;;;1.90;;
9188;SDS011;34313;50.780;6.084;2022-08-21T15:24:39;7.63;;;1.77;;
9188;SDS011;34313;50.780;6.084;2022-08-21T15:27:06;4.97;;;1.90;;
9188;SDS011;34313;50.780;6.084;2022-08-21T15:29:33;2.77;;;1.50;;
9188;SDS011;34313;50.780;6.084;2022-08-21T15:31:59;6.90;;;1.83;;
9188;SDS011;34313;50.780;6.084;2022-08-21T15:34:29;2.40;;;1.47;;
9188;SDS011;34313;50.780;6.084;2022-08-21T15:36:55;3.27;;;1.60;;
9188;SDS011;34313;50.780;6.084;2022-08-21T15:39:22;6.03;;;1.63;;
9188;SDS011;34313;50.780;6.084;2022-08-21T15:41:48;5.00;;;1.77;;
9188;SDS011;34313;50.780;6.084;2022-08-21T15:44:14;8.53;;;1.87;;
9188;SDS011;34313;50.780;6.084;2022-08-21T15:46:40;3.90;;;1.70;;
9188;SDS011;34313;50.780;6.084;2022-08-21T15:49:06;5.43;;;2.20;;
9188;SDS011;34313;50.780;6.084;2022-08-21T15:51:32;7.27;;;2.40;;
9188;SDS011;34313;50.780;6.084;2022-08-21T15:53:58;6.67;;;2.03;;
9188;SDS011;34313;50.780;6.084;2022-08-21T15:56:25;4.87;;;2.20;;
9188;SDS011;34313;50.780;6.084;2022-08-21T15:59:04;9.13;;;2.30;;
9188;SDS011;34313;50.780;6.084;2022-08-21T16:01:32;6.10;;;1.93;;
9188;SDS011;34313;50.780;6.084;2022-08-21T16:03:58;8.40;;;1.77;;
9188;SDS011;34313;50.780;6.084;2022-08-21T16:06:24;5.73;;;1.67;;
9188;SDS011;34313;50.780;6.084;2022-08-21T16:08:49;8.33;;;1.83;;
9188;SDS011;34313;50.780;6.084;2022-08-21T16:11:15;7.80;;;2.20;;
9188;SDS011;34313;50.780;6.084;2022-08-21T16:13:41;6.70;;;1.70;;
9188;SDS011;34313;50.780;6.084;2022-08-21T16:16:10;5.57;;;1.70;;
9188;SDS011;34313;50.780;6.084;2022-08-21T16:18:37;5.30;;;1.30;;
9188;SDS011;34313;50.780;6.084;2022-08-21T16:21:04;5.70;;;2.63;;
9188;SDS011;34313;50.780;6.084;2022-08-21T16:23:30;5.37;;;2.70;;
9188;SDS011;34313;50.780;6.084;2022-08-21T16:25:57;5.70;;;1.87;;
9188;SDS011;34313;50.780;6.084;2022-08-21T16:28:23;5.60;;;1.93;;
9188;SDS011;34313;50.780;6.084;2022-08-21T16:30:49;10.17;;;2.13;;
9188;SDS011;34313;50.780;6.084;2022-08-21T16:33:21;3.63;;;1.53;;
9188;SDS011;34313;50.780;6.084;2022-08-21T16:35:46;6.00;;;1.60;;
9188;SDS011;34313;50.780;6.084;2022-08-21T16:38:12;4.33;;;1.43;;